createdAt,value
2023-01-15T00:04:32.175Z,7.98
2023-01-15T00:14:33.682Z,7.80
2023-01-15T00:24:53.690Z,7.74
2023-01-15T00:34:55.730Z,7.63
2023-01-15T00:44:57.201Z,7.58
2023-01-15T00:54:59.090Z,7.47
2023-01-15T01:05:00.457Z,7.50
2023-01-15T01:15:02.029Z,7.42
2023-01-15T01:25:03.692Z,7.39
2023-01-15T01:35:05.633Z,7.37
2023-01-15T01:45:11.811Z,7.24
2023-01-15T01:55:15.201Z,7.29
2023-01-15T02:05:28.040Z,7.22
2023-01-15T02:15:37.728Z,7.17
2023-01-15T02:26:21.196Z,7.02
2023-01-15T02:36:25.013Z,7.13
2023-01-15T02:46:31.615Z,7.07
2023-01-15T02:56:36.023Z,7.05
2023-01-15T03:06:43.983Z,7.05
2023-01-15T03:16:48.080Z,6.99
2023-01-15T03:26:49.610Z,7.04
2023-01-15T03:36:52.281Z,7.02
2023-01-15T03:47:21.469Z,7.00
2023-01-15T03:58:12.432Z,6.95
2023-01-15T04:08:17.817Z,6.96
2023-01-15T04:18:20.357Z,6.92
2023-01-15T04:28:21.715Z,6.92
2023-01-15T04:38:23.050Z,6.94
2023-01-15T04:48:25.239Z,6.90
2023-01-15T04:58:26.624Z,6.92
2023-01-15T05:08:28.426Z,6.91
2023-01-15T05:18:29.804Z,6.93
2023-01-15T05:28:31.393Z,6.95
2023-01-15T05:38:33.699Z,6.93
2023-01-15T05:48:35.233Z,6.95
2023-01-15T05:58:37.240Z,6.93
2023-01-15T06:08:38.719Z,6.92
2023-01-15T06:18:41.015Z,6.96
2023-01-15T06:28:43.396Z,6.89
2023-01-15T06:38:45.231Z,6.92
2023-01-15T06:48:47.532Z,6.96
2023-01-15T06:58:48.955Z,6.92
2023-01-15T07:08:50.495Z,6.93
2023-01-15T07:18:52.149Z,6.95
2023-01-15T07:28:54.479Z,6.90
2023-01-15T07:38:56.348Z,6.85
2023-01-15T07:49:16.213Z,6.79
2023-01-15T07:59:17.579Z,6.81
2023-01-15T08:09:19.045Z,6.82
2023-01-15T08:19:20.673Z,6.78
2023-01-15T08:29:22.517Z,6.78
2023-01-15T08:39:23.936Z,6.73
2023-01-15T08:49:25.448Z,6.66
2023-01-15T08:59:27.449Z,6.63
2023-01-15T09:09:28.937Z,6.55
2023-01-15T09:19:30.539Z,6.56
2023-01-15T09:29:32.045Z,6.62
2023-01-15T09:39:33.482Z,6.59
2023-01-15T09:49:40.849Z,6.61
2023-01-15T09:59:49.176Z,6.72
2023-01-15T10:10:00.570Z,6.81
2023-01-15T10:20:02.622Z,6.84
2023-01-15T10:30:42.999Z,7.00
2023-01-15T10:40:53.378Z,7.10
2023-01-15T10:50:56.246Z,7.20
2023-01-15T11:01:03.233Z,7.29
2023-01-15T11:12:03.388Z,7.34
2023-01-15T11:22:09.524Z,7.41
2023-01-15T11:32:38.371Z,7.45
2023-01-15T11:43:05.225Z,7.44
2023-01-15T11:53:14.612Z,7.47
2023-01-15T12:03:21.324Z,7.49
2023-01-15T12:13:44.085Z,7.46
2023-01-15T12:24:21.525Z,7.47
2023-01-15T12:34:24.327Z,7.52
2023-01-15T12:45:00.985Z,7.62
2023-01-15T12:55:26.965Z,7.62
2023-01-15T13:05:38.769Z,7.63
2023-01-15T13:16:02.909Z,7.59
2023-01-15T13:26:16.282Z,7.55
2023-01-15T13:36:29.872Z,7.57
2023-01-15T13:46:31.844Z,7.55
2023-01-15T13:56:36.645Z,7.56
2023-01-15T14:06:43.866Z,7.57
2023-01-15T14:17:22.748Z,7.62
2023-01-15T14:27:38.839Z,7.59
2023-01-15T14:37:55.385Z,7.57
2023-01-15T14:48:00.715Z,7.57
2023-01-15T14:58:05.383Z,7.56
2023-01-15T15:08:13.251Z,7.56
2023-01-15T15:18:34.729Z,7.53
2023-01-15T15:28:36.192Z,7.51
2023-01-15T15:38:41.621Z,7.41
2023-01-15T15:48:46.141Z,7.42
2023-01-15T15:58:47.648Z,7.38
2023-01-15T16:08:54.860Z,7.38
2023-01-15T16:18:59.408Z,7.41
2023-01-15T16:29:04.690Z,7.34
2023-01-15T16:39:07.676Z,7.34
2023-01-15T16:49:24.154Z,7.31
2023-01-15T16:59:25.489Z,7.28
2023-01-15T17:09:28.586Z,7.29
2023-01-15T17:19:30.293Z,7.28
2023-01-15T17:29:31.797Z,7.24
2023-01-15T17:39:33.305Z,7.28
2023-01-15T17:49:35.181Z,7.23
2023-01-15T17:59:54.951Z,7.24
2023-01-15T18:09:57.404Z,7.23
2023-01-15T18:19:58.866Z,7.25
2023-01-15T18:30:00.274Z,7.18
2023-01-15T18:40:01.806Z,7.17
2023-01-15T18:50:03.279Z,7.13
2023-01-15T19:00:05.256Z,7.16
2023-01-15T19:10:07.230Z,7.10
2023-01-15T19:20:10.950Z,7.09
2023-01-15T19:30:12.593Z,6.99
2023-01-15T19:40:22.928Z,6.98
2023-01-15T19:50:45.955Z,7.00
2023-01-15T20:00:48.612Z,6.99
2023-01-15T20:10:50.912Z,6.95
2023-01-15T20:20:54.840Z,6.92
2023-01-15T20:30:57.478Z,6.87
2023-01-15T20:41:21.495Z,6.79
2023-01-15T20:51:23.152Z,6.76
2023-01-15T21:01:26.773Z,6.71
2023-01-15T21:11:28.406Z,6.70
2023-01-15T21:21:29.982Z,6.73
2023-01-15T21:31:31.481Z,6.85
2023-01-15T21:41:51.644Z,6.84
2023-01-15T21:51:53.289Z,6.73
2023-01-15T22:01:56.773Z,6.60
2023-01-15T22:11:58.306Z,6.55
2023-01-15T22:22:08.716Z,6.50
2023-01-15T22:32:13.069Z,6.40
2023-01-15T22:42:27.617Z,6.24
2023-01-15T22:52:29.360Z,6.38
2023-01-15T23:02:49.517Z,6.34
2023-01-15T23:12:50.902Z,6.38
2023-01-15T23:22:52.260Z,6.40
2023-01-15T23:32:53.593Z,6.34
2023-01-15T23:43:13.528Z,6.34
2023-01-15T23:53:14.979Z,6.25
